This is the latest recevied weather packets stored in our database for station/object IK2ILW-4. If no packets are shown the sender has not sent any weather packets the latest 10 day(s).
| Time | Temp. | Humidity | Pressure | Rain* | Wind** | Luminosity | Snow |
|---|---|---|---|---|---|---|---|
| 1787895468 | 19.44° C | 80% | 1023.7 hPa | 0.51 mm | - | 30 W/m² | - |
| 1787895171 | 18.89° C | 81% | 1023.7 hPa | 0.51 mm | - | 30 W/m² | - |
| 1787894851 | 18.89° C | 82% | 1023.6 hPa | 0.51 mm | - | 12 W/m² | - |
| 1787894563 | 18.33° C | 82% | 1023.6 hPa | 0.51 mm | - | 12 W/m² | - |
| 1787894269 | 18.33° C | 82% | 1023.6 hPa | 0.51 mm | - | 5 W/m² | - |
| 1787893955 | 18.33° C | 83% | 1023.4 hPa | 0.51 mm | - | 0 W/m² | - |
| 1787893671 | 18.33° C | 81% | 1023.4 hPa | 0.51 mm | - | 0 W/m² | - |
| 1787893360 | 18.33° C | 82% | 1023.4 hPa | 0.51 mm | - | 0 W/m² | - |
| 1787893055 | 18.89° C | 81% | 1023.5 hPa | 0.51 mm | - | 0 W/m² | - |
| 1787892763 | 18.89° C | 81% | 1023.5 hPa | 0.51 mm | - | 0 W/m² | - |
| 1787892472 | 18.33° C | 82% | 1023.5 hPa | 0.51 mm | - | 0 W/m² | - |
| 1787892155 | 18.33° C | 82% | 1023.2 hPa | 0.51 mm | - | 0 W/m² | - |
| 1787891868 | 18.89° C | 80% | 1023.2 hPa | 0.51 mm | - | 0 W/m² | - |
| 1787891558 | 18.33° C | 82% | 1023.2 hPa | 0.51 mm | - | 0 W/m² | - |
| 1787889154 | 19.44° C | 78% | 1023.2 hPa | 0.25 mm | - | 0 W/m² | - |
| 1787888864 | 18.89° C | 78% | 1023.2 hPa | 0.25 mm | - | 0 W/m² | - |
| 1787888552 | 19.44° C | 78% | 1022.9 hPa | 0 mm | - | 0 W/m² | - |
| 1787888270 | 19.44° C | 78% | 1022.9 hPa | 0 mm | - | 0 W/m² | - |
| 1787887955 | 19.44° C | 76% | 1022.9 hPa | 0 mm | - | 0 W/m² | - |
| 1787887654 | 20° C | 74% | 1022.6 hPa | 0 mm | - | 0 W/m² | - |
| 1787887368 | 20° C | 73% | 1022.6 hPa | 0 mm | - | 0 W/m² | - |
| 1787887072 | 20° C | 74% | 1022.6 hPa | 0 mm | - | 0 W/m² | - |
| 1787886759 | 20° C | 74% | 1023 hPa | 0 mm | - | 0 W/m² | - |
| 1787886470 | 20° C | 74% | 1023 hPa | 0 mm | - | 0 W/m² | - |
| 1787886156 | 20° C | 75% | 1023 hPa | 0 mm | - | 0 W/m² | - |
* Rain since midnight (hover to see other rain measurements)
** Current wind speed in m/s (hover to see current wind gust speed)